sensor_id;sensor_type;location;lat;lon;timestamp;P1;durP1;ratioP1;P2;durP2;ratioP2
66585;SDS011;53444;45.822;16.092;2024-01-27T00:00:43;81.57;;;31.30;;
66585;SDS011;53444;45.822;16.092;2024-01-27T00:03:10;65.82;;;30.45;;
66585;SDS011;53444;45.822;16.092;2024-01-27T00:05:37;63.67;;;29.23;;
66585;SDS011;53444;45.822;16.092;2024-01-27T00:08:05;65.20;;;30.13;;
66585;SDS011;53444;45.822;16.092;2024-01-27T00:10:33;61.17;;;29.83;;
66585;SDS011;53444;45.822;16.092;2024-01-27T00:13:00;59.65;;;28.70;;
66585;SDS011;53444;45.822;16.092;2024-01-27T00:15:27;55.83;;;28.92;;
66585;SDS011;53444;45.822;16.092;2024-01-27T00:17:54;60.10;;;27.83;;
66585;SDS011;53444;45.822;16.092;2024-01-27T00:20:21;60.90;;;27.48;;
66585;SDS011;53444;45.822;16.092;2024-01-27T00:22:48;60.00;;;27.50;;
66585;SDS011;53444;45.822;16.092;2024-01-27T00:25:16;63.75;;;27.25;;
66585;SDS011;53444;45.822;16.092;2024-01-27T00:27:43;61.35;;;29.05;;
66585;SDS011;53444;45.822;16.092;2024-01-27T00:30:10;59.90;;;26.13;;
66585;SDS011;53444;45.822;16.092;2024-01-27T00:32:37;64.15;;;27.45;;
66585;SDS011;53444;45.822;16.092;2024-01-27T00:35:05;61.70;;;28.48;;
66585;SDS011;53444;45.822;16.092;2024-01-27T00:37:33;63.28;;;28.13;;
66585;SDS011;53444;45.822;16.092;2024-01-27T00:39:59;65.53;;;28.23;;
66585;SDS011;53444;45.822;16.092;2024-01-27T00:42:27;61.58;;;28.10;;
66585;SDS011;53444;45.822;16.092;2024-01-27T00:44:54;67.88;;;30.25;;
66585;SDS011;53444;45.822;16.092;2024-01-27T00:47:21;64.45;;;28.83;;
66585;SDS011;53444;45.822;16.092;2024-01-27T00:49:47;66.50;;;27.52;;
66585;SDS011;53444;45.822;16.092;2024-01-27T00:52:14;57.40;;;25.30;;
66585;SDS011;53444;45.822;16.092;2024-01-27T00:54:41;45.10;;;21.83;;
66585;SDS011;53444;45.822;16.092;2024-01-27T00:57:08;47.40;;;22.23;;
66585;SDS011;53444;45.822;16.092;2024-01-27T00:59:36;44.60;;;21.00;;
66585;SDS011;53444;45.822;16.092;2024-01-27T01:02:04;36.75;;;18.38;;
66585;SDS011;53444;45.822;16.092;2024-01-27T01:04:30;35.97;;;17.30;;
66585;SDS011;53444;45.822;16.092;2024-01-27T01:06:57;36.55;;;16.00;;
66585;SDS011;53444;45.822;16.092;2024-01-27T01:09:24;33.15;;;15.18;;
66585;SDS011;53444;45.822;16.092;2024-01-27T01:11:51;35.28;;;15.63;;
66585;SDS011;53444;45.822;16.092;2024-01-27T01:14:18;32.20;;;15.52;;
66585;SDS011;53444;45.822;16.092;2024-01-27T01:16:46;34.33;;;16.17;;
66585;SDS011;53444;45.822;16.092;2024-01-27T01:19:13;33.63;;;15.98;;
66585;SDS011;53444;45.822;16.092;2024-01-27T01:21:39;30.63;;;14.48;;
66585;SDS011;53444;45.822;16.092;2024-01-27T01:24:06;34.25;;;14.52;;
66585;SDS011;53444;45.822;16.092;2024-01-27T01:26:33;31.92;;;14.57;;
66585;SDS011;53444;45.822;16.092;2024-01-27T01:29:00;28.90;;;13.57;;
66585;SDS011;53444;45.822;16.092;2024-01-27T01:31:26;26.83;;;13.68;;
66585;SDS011;53444;45.822;16.092;2024-01-27T01:33:55;23.10;;;11.85;;
66585;SDS011;53444;45.822;16.092;2024-01-27T01:36:21;22.77;;;12.23;;
66585;SDS011;53444;45.822;16.092;2024-01-27T01:38:48;23.67;;;12.00;;
66585;SDS011;53444;45.822;16.092;2024-01-27T01:41:15;26.67;;;11.60;;
66585;SDS011;53444;45.822;16.092;2024-01-27T01:43:41;23.83;;;11.02;;
66585;SDS011;53444;45.822;16.092;2024-01-27T01:46:07;22.08;;;10.85;;
66585;SDS011;53444;45.822;16.092;2024-01-27T01:48:35;19.77;;;10.30;;
66585;SDS011;53444;45.822;16.092;2024-01-27T01:51:03;21.05;;;9.57;;
66585;SDS011;53444;45.822;16.092;2024-01-27T01:53:30;23.48;;;9.77;;
66585;SDS011;53444;45.822;16.092;2024-01-27T01:55:57;18.83;;;9.40;;
66585;SDS011;53444;45.822;16.092;2024-01-27T01:58:24;19.25;;;8.32;;
66585;SDS011;53444;45.822;16.092;2024-01-27T02:00:52;14.43;;;7.43;;
66585;SDS011;53444;45.822;16.092;2024-01-27T02:03:18;21.30;;;7.03;;
66585;SDS011;53444;45.822;16.092;2024-01-27T02:05:45;17.77;;;7.18;;
66585;SDS011;53444;45.822;16.092;2024-01-27T02:08:14;19.48;;;7.15;;
66585;SDS011;53444;45.822;16.092;2024-01-27T02:10:40;16.00;;;6.82;;
66585;SDS011;53444;45.822;16.092;2024-01-27T02:13:15;15.97;;;6.63;;
66585;SDS011;53444;45.822;16.092;2024-01-27T02:15:44;15.48;;;6.75;;
66585;SDS011;53444;45.822;16.092;2024-01-27T02:18:11;14.30;;;5.90;;
66585;SDS011;53444;45.822;16.092;2024-01-27T02:20:38;17.13;;;6.43;;
66585;SDS011;53444;45.822;16.092;2024-01-27T02:23:05;12.88;;;6.05;;
66585;SDS011;53444;45.822;16.092;2024-01-27T02:25:34;12.50;;;6.00;;
66585;SDS011;53444;45.822;16.092;2024-01-27T02:28:01;12.65;;;5.75;;
66585;SDS011;53444;45.822;16.092;2024-01-27T02:30:28;14.80;;;6.05;;
66585;SDS011;53444;45.822;16.092;2024-01-27T02:32:55;12.75;;;5.72;;
66585;SDS011;53444;45.822;16.092;2024-01-27T02:35:22;15.27;;;5.68;;
66585;SDS011;53444;45.822;16.092;2024-01-27T02:37:49;14.67;;;5.90;;
66585;SDS011;53444;45.822;16.092;2024-01-27T02:40:15;13.50;;;5.57;;
66585;SDS011;53444;45.822;16.092;2024-01-27T02:42:44;11.57;;;5.50;;
66585;SDS011;53444;45.822;16.092;2024-01-27T02:45:11;17.02;;;6.38;;
66585;SDS011;53444;45.822;16.092;2024-01-27T02:47:38;17.92;;;6.18;;
66585;SDS011;53444;45.822;16.092;2024-01-27T02:50:05;13.60;;;6.00;;
66585;SDS011;53444;45.822;16.092;2024-01-27T02:52:33;16.73;;;5.88;;
66585;SDS011;53444;45.822;16.092;2024-01-27T02:54:59;13.73;;;5.95;;
66585;SDS011;53444;45.822;16.092;2024-01-27T02:57:26;11.52;;;5.30;;
66585;SDS011;53444;45.822;16.092;2024-01-27T02:59:54;12.30;;;5.65;;
66585;SDS011;53444;45.822;16.092;2024-01-27T03:02:21;12.67;;;5.90;;
66585;SDS011;53444;45.822;16.092;2024-01-27T03:04:48;13.15;;;6.05;;
66585;SDS011;53444;45.822;16.092;2024-01-27T03:07:15;14.25;;;5.65;;
66585;SDS011;53444;45.822;16.092;2024-01-27T03:09:42;11.25;;;5.35;;
66585;SDS011;53444;45.822;16.092;2024-01-27T03:12:08;7.78;;;4.43;;
66585;SDS011;53444;45.822;16.092;2024-01-27T03:14:35;10.70;;;4.43;;
66585;SDS011;53444;45.822;16.092;2024-01-27T03:17:03;12.13;;;5.18;;
66585;SDS011;53444;45.822;16.092;2024-01-27T03:19:30;10.55;;;4.40;;
66585;SDS011;53444;45.822;16.092;2024-01-27T03:21:57;8.80;;;3.97;;
66585;SDS011;53444;45.822;16.092;2024-01-27T03:24:24;9.48;;;4.47;;
66585;SDS011;53444;45.822;16.092;2024-01-27T03:26:51;8.17;;;4.17;;
66585;SDS011;53444;45.822;16.092;2024-01-27T03:29:17;9.35;;;3.60;;
66585;SDS011;53444;45.822;16.092;2024-01-27T03:31:44;6.32;;;3.67;;
66585;SDS011;53444;45.822;16.092;2024-01-27T03:34:12;9.75;;;3.35;;
66585;SDS011;53444;45.822;16.092;2024-01-27T03:36:39;9.23;;;3.50;;
66585;SDS011;53444;45.822;16.092;2024-01-27T03:39:06;11.17;;;4.20;;
66585;SDS011;53444;45.822;16.092;2024-01-27T03:41:36;9.40;;;4.15;;
66585;SDS011;53444;45.822;16.092;2024-01-27T03:44:03;16.52;;;5.60;;
66585;SDS011;53444;45.822;16.092;2024-01-27T03:46:29;10.50;;;6.25;;
66585;SDS011;53444;45.822;16.092;2024-01-27T03:48:56;12.45;;;5.70;;
66585;SDS011;53444;45.822;16.092;2024-01-27T03:51:24;14.60;;;6.07;;
66585;SDS011;53444;45.822;16.092;2024-01-27T03:53:51;9.70;;;5.35;;
66585;SDS011;53444;45.822;16.092;2024-01-27T03:56:18;11.70;;;6.38;;
66585;SDS011;53444;45.822;16.092;2024-01-27T03:58:45;12.48;;;6.20;;
66585;SDS011;53444;45.822;16.092;2024-01-27T04:01:11;13.55;;;6.63;;
66585;SDS011;53444;45.822;16.092;2024-01-27T04:03:38;16.53;;;8.23;;
66585;SDS011;53444;45.822;16.092;2024-01-27T04:06:05;15.95;;;7.80;;
66585;SDS011;53444;45.822;16.092;2024-01-27T04:08:33;13.65;;;6.82;;
66585;SDS011;53444;45.822;16.092;2024-01-27T04:11:00;15.65;;;7.00;;
66585;SDS011;53444;45.822;16.092;2024-01-27T04:13:27;17.05;;;7.72;;
66585;SDS011;53444;45.822;16.092;2024-01-27T04:15:54;16.77;;;8.57;;
66585;SDS011;53444;45.822;16.092;2024-01-27T04:18:22;18.67;;;7.80;;
66585;SDS011;53444;45.822;16.092;2024-01-27T04:20:49;15.63;;;8.43;;
66585;SDS011;53444;45.822;16.092;2024-01-27T04:23:15;19.73;;;9.60;;
66585;SDS011;53444;45.822;16.092;2024-01-27T04:25:44;19.58;;;9.40;;
66585;SDS011;53444;45.822;16.092;2024-01-27T04:28:11;25.80;;;11.43;;
66585;SDS011;53444;45.822;16.092;2024-01-27T04:30:38;25.15;;;9.57;;
66585;SDS011;53444;45.822;16.092;2024-01-27T04:33:05;22.30;;;9.95;;
66585;SDS011;53444;45.822;16.092;2024-01-27T04:35:32;21.08;;;9.57;;
66585;SDS011;53444;45.822;16.092;2024-01-27T04:37:59;19.90;;;9.93;;
66585;SDS011;53444;45.822;16.092;2024-01-27T04:40:26;22.77;;;9.97;;
66585;SDS011;53444;45.822;16.092;2024-01-27T04:42:54;26.38;;;10.82;;
66585;SDS011;53444;45.822;16.092;2024-01-27T04:45:21;23.42;;;10.63;;
66585;SDS011;53444;45.822;16.092;2024-01-27T04:47:48;25.73;;;11.30;;
66585;SDS011;53444;45.822;16.092;2024-01-27T04:50:15;25.48;;;12.65;;
66585;SDS011;53444;45.822;16.092;2024-01-27T04:52:42;28.47;;;11.90;;
66585;SDS011;53444;45.822;16.092;2024-01-27T04:55:09;29.65;;;12.93;;
66585;SDS011;53444;45.822;16.092;2024-01-27T04:57:35;29.77;;;13.13;;
66585;SDS011;53444;45.822;16.092;2024-01-27T05:00:04;30.35;;;13.15;;
66585;SDS011;53444;45.822;16.092;2024-01-27T05:02:37;30.05;;;12.85;;
66585;SDS011;53444;45.822;16.092;2024-01-27T05:05:05;32.73;;;13.90;;
66585;SDS011;53444;45.822;16.092;2024-01-27T05:07:32;33.83;;;16.30;;
66585;SDS011;53444;45.822;16.092;2024-01-27T05:09:58;34.40;;;16.20;;
66585;SDS011;53444;45.822;16.092;2024-01-27T05:12:25;38.70;;;16.08;;
66585;SDS011;53444;45.822;16.092;2024-01-27T05:14:52;29.88;;;14.32;;
66585;SDS011;53444;45.822;16.092;2024-01-27T05:17:20;34.27;;;16.43;;
66585;SDS011;53444;45.822;16.092;2024-01-27T05:19:49;32.58;;;14.88;;
66585;SDS011;53444;45.822;16.092;2024-01-27T05:22:16;30.77;;;13.05;;
66585;SDS011;53444;45.822;16.092;2024-01-27T05:24:42;27.75;;;13.30;;
66585;SDS011;53444;45.822;16.092;2024-01-27T05:27:09;30.20;;;13.73;;
66585;SDS011;53444;45.822;16.092;2024-01-27T05:29:36;32.33;;;14.30;;
66585;SDS011;53444;45.822;16.092;2024-01-27T05:32:03;27.33;;;13.70;;
66585;SDS011;53444;45.822;16.092;2024-01-27T05:34:32;35.83;;;14.18;;
66585;SDS011;53444;45.822;16.092;2024-01-27T05:36:59;28.40;;;13.18;;
66585;SDS011;53444;45.822;16.092;2024-01-27T05:39:25;29.02;;;13.15;;
66585;SDS011;53444;45.822;16.092;2024-01-27T05:41:54;28.13;;;12.53;;
66585;SDS011;53444;45.822;16.092;2024-01-27T05:44:21;38.92;;;15.00;;
66585;SDS011;53444;45.822;16.092;2024-01-27T05:46:48;37.15;;;15.95;;
66585;SDS011;53444;45.822;16.092;2024-01-27T05:49:14;31.15;;;11.95;;
66585;SDS011;53444;45.822;16.092;2024-01-27T05:51:42;25.38;;;10.02;;
66585;SDS011;53444;45.822;16.092;2024-01-27T05:54:09;28.50;;;12.53;;
66585;SDS011;53444;45.822;16.092;2024-01-27T05:56:38;27.52;;;12.45;;
66585;SDS011;53444;45.822;16.092;2024-01-27T05:59:05;23.23;;;10.82;;
66585;SDS011;53444;45.822;16.092;2024-01-27T06:01:32;21.75;;;10.68;;
66585;SDS011;53444;45.822;16.092;2024-01-27T06:03:59;25.20;;;11.07;;
66585;SDS011;53444;45.822;16.092;2024-01-27T06:06:26;26.53;;;11.20;;
66585;SDS011;53444;45.822;16.092;2024-01-27T06:08:54;21.75;;;9.68;;
66585;SDS011;53444;45.822;16.092;2024-01-27T06:11:24;23.33;;;9.93;;
66585;SDS011;53444;45.822;16.092;2024-01-27T06:13:51;21.73;;;10.85;;
66585;SDS011;53444;45.822;16.092;2024-01-27T06:16:17;23.20;;;9.80;;
66585;SDS011;53444;45.822;16.092;2024-01-27T06:18:45;26.77;;;10.40;;
66585;SDS011;53444;45.822;16.092;2024-01-27T06:21:11;19.67;;;10.02;;
66585;SDS011;53444;45.822;16.092;2024-01-27T06:23:38;21.67;;;10.02;;
66585;SDS011;53444;45.822;16.092;2024-01-27T06:26:07;27.60;;;11.20;;
66585;SDS011;53444;45.822;16.092;2024-01-27T06:28:34;24.60;;;11.52;;
66585;SDS011;53444;45.822;16.092;2024-01-27T06:31:02;29.47;;;10.57;;
66585;SDS011;53444;45.822;16.092;2024-01-27T06:33:29;27.08;;;11.50;;
66585;SDS011;53444;45.822;16.092;2024-01-27T06:35:57;27.60;;;13.50;;
66585;SDS011;53444;45.822;16.092;2024-01-27T06:38:22;33.80;;;13.07;;
66585;SDS011;53444;45.822;16.092;2024-01-27T06:40:49;27.50;;;11.80;;
66585;SDS011;53444;45.822;16.092;2024-01-27T06:43:18;23.85;;;11.45;;
66585;SDS011;53444;45.822;16.092;2024-01-27T06:45:44;30.98;;;14.95;;
66585;SDS011;53444;45.822;16.092;2024-01-27T06:48:11;29.42;;;14.85;;
66585;SDS011;53444;45.822;16.092;2024-01-27T06:50:38;31.88;;;15.27;;
66585;SDS011;53444;45.822;16.092;2024-01-27T06:53:05;31.23;;;13.37;;
66585;SDS011;53444;45.822;16.092;2024-01-27T06:55:32;28.75;;;12.30;;
66585;SDS011;53444;45.822;16.092;2024-01-27T06:57:59;23.80;;;11.13;;
66585;SDS011;53444;45.822;16.092;2024-01-27T07:00:27;22.67;;;10.88;;
66585;SDS011;53444;45.822;16.092;2024-01-27T07:02:54;20.88;;;10.00;;
66585;SDS011;53444;45.822;16.092;2024-01-27T07:05:21;27.40;;;11.50;;
66585;SDS011;53444;45.822;16.092;2024-01-27T07:07:47;25.48;;;10.13;;
66585;SDS011;53444;45.822;16.092;2024-01-27T07:10:15;23.58;;;11.00;;
66585;SDS011;53444;45.822;16.092;2024-01-27T07:12:41;22.88;;;10.65;;
66585;SDS011;53444;45.822;16.092;2024-01-27T07:15:08;33.00;;;12.75;;
66585;SDS011;53444;45.822;16.092;2024-01-27T07:17:37;28.10;;;11.90;;
66585;SDS011;53444;45.822;16.092;2024-01-27T07:20:04;27.42;;;11.57;;
66585;SDS011;53444;45.822;16.092;2024-01-27T07:22:32;25.33;;;12.02;;
66585;SDS011;53444;45.822;16.092;2024-01-27T07:24:59;26.92;;;12.32;;
66585;SDS011;53444;45.822;16.092;2024-01-27T07:27:25;25.88;;;11.43;;
66585;SDS011;53444;45.822;16.092;2024-01-27T07:29:52;25.20;;;12.70;;
66585;SDS011;53444;45.822;16.092;2024-01-27T07:32:19;24.77;;;12.27;;
66585;SDS011;53444;45.822;16.092;2024-01-27T07:34:49;23.02;;;11.98;;
66585;SDS011;53444;45.822;16.092;2024-01-27T07:37:16;24.65;;;12.57;;
66585;SDS011;53444;45.822;16.092;2024-01-27T07:39:44;30.45;;;12.95;;
66585;SDS011;53444;45.822;16.092;2024-01-27T07:42:10;26.13;;;12.77;;
66585;SDS011;53444;45.822;16.092;2024-01-27T07:44:37;26.73;;;12.52;;
66585;SDS011;53444;45.822;16.092;2024-01-27T07:47:05;28.35;;;12.70;;
66585;SDS011;53444;45.822;16.092;2024-01-27T07:49:32;26.50;;;12.35;;
66585;SDS011;53444;45.822;16.092;2024-01-27T07:52:01;32.95;;;14.40;;
66585;SDS011;53444;45.822;16.092;2024-01-27T07:54:27;34.57;;;15.33;;
66585;SDS011;53444;45.822;16.092;2024-01-27T07:56:56;32.55;;;15.15;;
66585;SDS011;53444;45.822;16.092;2024-01-27T07:59:22;35.03;;;15.00;;
66585;SDS011;53444;45.822;16.092;2024-01-27T08:01:49;33.50;;;16.42;;
66585;SDS011;53444;45.822;16.092;2024-01-27T08:04:16;31.88;;;16.52;;
66585;SDS011;53444;45.822;16.092;2024-01-27T08:06:46;34.67;;;16.27;;
66585;SDS011;53444;45.822;16.092;2024-01-27T08:09:15;32.45;;;15.55;;
66585;SDS011;53444;45.822;16.092;2024-01-27T08:11:43;32.38;;;15.75;;
66585;SDS011;53444;45.822;16.092;2024-01-27T08:14:11;31.27;;;15.13;;
66585;SDS011;53444;45.822;16.092;2024-01-27T08:16:38;33.42;;;15.25;;
66585;SDS011;53444;45.822;16.092;2024-01-27T08:19:05;32.40;;;15.57;;
66585;SDS011;53444;45.822;16.092;2024-01-27T08:21:32;36.13;;;16.55;;
66585;SDS011;53444;45.822;16.092;2024-01-27T08:23:59;33.85;;;17.17;;
66585;SDS011;53444;45.822;16.092;2024-01-27T08:26:28;34.85;;;16.33;;
66585;SDS011;53444;45.822;16.092;2024-01-27T08:28:54;33.65;;;16.90;;
66585;SDS011;53444;45.822;16.092;2024-01-27T08:31:23;39.60;;;16.77;;
66585;SDS011;53444;45.822;16.092;2024-01-27T08:33:50;35.58;;;15.93;;
66585;SDS011;53444;45.822;16.092;2024-01-27T08:36:17;28.80;;;15.65;;
66585;SDS011;53444;45.822;16.092;2024-01-27T08:38:44;34.28;;;16.40;;
66585;SDS011;53444;45.822;16.092;2024-01-27T08:41:11;42.70;;;16.85;;
66585;SDS011;53444;45.822;16.092;2024-01-27T08:43:39;34.10;;;15.73;;
66585;SDS011;53444;45.822;16.092;2024-01-27T08:46:06;30.60;;;14.68;;
66585;SDS011;53444;45.822;16.092;2024-01-27T08:48:36;34.78;;;15.07;;
66585;SDS011;53444;45.822;16.092;2024-01-27T08:51:07;31.40;;;14.40;;
66585;SDS011;53444;45.822;16.092;2024-01-27T08:53:35;29.73;;;14.20;;
66585;SDS011;53444;45.822;16.092;2024-01-27T08:56:05;34.40;;;14.93;;
66585;SDS011;53444;45.822;16.092;2024-01-27T08:58:32;29.83;;;13.43;;
66585;SDS011;53444;45.822;16.092;2024-01-27T09:01:01;27.08;;;12.85;;
66585;SDS011;53444;45.822;16.092;2024-01-27T09:03:30;23.70;;;12.45;;
66585;SDS011;53444;45.822;16.092;2024-01-27T09:05:59;26.77;;;13.75;;
66585;SDS011;53444;45.822;16.092;2024-01-27T09:08:25;32.97;;;13.70;;
66585;SDS011;53444;45.822;16.092;2024-01-27T09:10:52;24.17;;;12.80;;
66585;SDS011;53444;45.822;16.092;2024-01-27T09:13:20;23.73;;;12.45;;
66585;SDS011;53444;45.822;16.092;2024-01-27T09:15:47;26.00;;;12.50;;
66585;SDS011;53444;45.822;16.092;2024-01-27T09:18:15;21.02;;;9.38;;
66585;SDS011;53444;45.822;16.092;2024-01-27T09:20:42;21.37;;;9.53;;
66585;SDS011;53444;45.822;16.092;2024-01-27T09:23:09;23.85;;;9.13;;
66585;SDS011;53444;45.822;16.092;2024-01-27T09:25:36;18.80;;;7.50;;
66585;SDS011;53444;45.822;16.092;2024-01-27T09:28:04;14.63;;;6.82;;
66585;SDS011;53444;45.822;16.092;2024-01-27T09:30:31;19.25;;;7.97;;
66585;SDS011;53444;45.822;16.092;2024-01-27T09:32:58;11.23;;;6.47;;
66585;SDS011;53444;45.822;16.092;2024-01-27T09:35:27;10.30;;;5.63;;
66585;SDS011;53444;45.822;16.092;2024-01-27T09:37:54;13.48;;;5.32;;
66585;SDS011;53444;45.822;16.092;2024-01-27T09:40:21;10.30;;;5.22;;
66585;SDS011;53444;45.822;16.092;2024-01-27T09:42:49;13.50;;;5.35;;
66585;SDS011;53444;45.822;16.092;2024-01-27T09:45:18;8.87;;;3.93;;
66585;SDS011;53444;45.822;16.092;2024-01-27T09:47:46;8.75;;;4.25;;
66585;SDS011;53444;45.822;16.092;2024-01-27T09:50:14;13.50;;;5.38;;
66585;SDS011;53444;45.822;16.092;2024-01-27T09:52:45;11.63;;;5.07;;
66585;SDS011;53444;45.822;16.092;2024-01-27T09:55:12;16.27;;;4.90;;
66585;SDS011;53444;45.822;16.092;2024-01-27T09:57:39;11.73;;;6.00;;
66585;SDS011;53444;45.822;16.092;2024-01-27T10:00:07;11.73;;;5.32;;
66585;SDS011;53444;45.822;16.092;2024-01-27T10:02:37;12.95;;;5.75;;
66585;SDS011;53444;45.822;16.092;2024-01-27T10:05:06;14.20;;;5.88;;
66585;SDS011;53444;45.822;16.092;2024-01-27T10:07:34;9.10;;;5.20;;
66585;SDS011;53444;45.822;16.092;2024-01-27T10:10:03;11.30;;;5.47;;
66585;SDS011;53444;45.822;16.092;2024-01-27T10:12:31;12.27;;;5.80;;
66585;SDS011;53444;45.822;16.092;2024-01-27T10:14:59;11.75;;;5.78;;
66585;SDS011;53444;45.822;16.092;2024-01-27T10:17:25;13.45;;;5.50;;
66585;SDS011;53444;45.822;16.092;2024-01-27T10:20:00;9.55;;;5.28;;
66585;SDS011;53444;45.822;16.092;2024-01-27T10:22:28;12.53;;;4.33;;
66585;SDS011;53444;45.822;16.092;2024-01-27T10:24:57;9.68;;;4.40;;
66585;SDS011;53444;45.822;16.092;2024-01-27T10:27:25;8.75;;;4.35;;
66585;SDS011;53444;45.822;16.092;2024-01-27T10:29:52;6.35;;;3.25;;
66585;SDS011;53444;45.822;16.092;2024-01-27T10:32:19;9.88;;;3.30;;
66585;SDS011;53444;45.822;16.092;2024-01-27T10:34:48;7.57;;;2.50;;
66585;SDS011;53444;45.822;16.092;2024-01-27T10:37:15;6.40;;;3.00;;
66585;SDS011;53444;45.822;16.092;2024-01-27T10:39:42;10.23;;;3.85;;
66585;SDS011;53444;45.822;16.092;2024-01-27T10:42:09;8.65;;;3.92;;
66585;SDS011;53444;45.822;16.092;2024-01-27T10:44:38;9.35;;;2.88;;
66585;SDS011;53444;45.822;16.092;2024-01-27T10:47:07;6.82;;;2.50;;
66585;SDS011;53444;45.822;16.092;2024-01-27T10:49:43;3.83;;;2.20;;
66585;SDS011;53444;45.822;16.092;2024-01-27T10:52:12;6.55;;;2.75;;
66585;SDS011;53444;45.822;16.092;2024-01-27T10:54:41;10.70;;;3.45;;
66585;SDS011;53444;45.822;16.092;2024-01-27T10:57:08;4.85;;;2.90;;
66585;SDS011;53444;45.822;16.092;2024-01-27T10:59:39;6.22;;;2.70;;
66585;SDS011;53444;45.822;16.092;2024-01-27T11:02:08;6.93;;;3.03;;
66585;SDS011;53444;45.822;16.092;2024-01-27T11:04:40;6.05;;;3.40;;
66585;SDS011;53444;45.822;16.092;2024-01-27T11:07:08;6.68;;;3.45;;
66585;SDS011;53444;45.822;16.092;2024-01-27T11:09:35;9.55;;;3.85;;
66585;SDS011;53444;45.822;16.092;2024-01-27T11:12:03;8.93;;;3.35;;
66585;SDS011;53444;45.822;16.092;2024-01-27T11:14:31;5.35;;;2.80;;
66585;SDS011;53444;45.822;16.092;2024-01-27T11:16:59;7.03;;;3.60;;
66585;SDS011;53444;45.822;16.092;2024-01-27T11:19:27;8.85;;;3.50;;
66585;SDS011;53444;45.822;16.092;2024-01-27T11:22:03;10.95;;;3.40;;
66585;SDS011;53444;45.822;16.092;2024-01-27T11:24:30;9.40;;;3.00;;
66585;SDS011;53444;45.822;16.092;2024-01-27T11:27:00;6.60;;;3.13;;
66585;SDS011;53444;45.822;16.092;2024-01-27T11:29:27;5.95;;;3.20;;
66585;SDS011;53444;45.822;16.092;2024-01-27T11:31:55;5.88;;;2.67;;
66585;SDS011;53444;45.822;16.092;2024-01-27T11:34:24;7.03;;;2.97;;
66585;SDS011;53444;45.822;16.092;2024-01-27T11:36:51;5.50;;;2.88;;
66585;SDS011;53444;45.822;16.092;2024-01-27T11:39:24;5.13;;;2.97;;
66585;SDS011;53444;45.822;16.092;2024-01-27T11:41:52;6.45;;;3.38;;
66585;SDS011;53444;45.822;16.092;2024-01-27T11:44:19;6.43;;;3.20;;
66585;SDS011;53444;45.822;16.092;2024-01-27T11:46:47;6.03;;;2.63;;
66585;SDS011;53444;45.822;16.092;2024-01-27T11:49:14;5.38;;;3.10;;
66585;SDS011;53444;45.822;16.092;2024-01-27T11:51:43;6.90;;;3.15;;
66585;SDS011;53444;45.822;16.092;2024-01-27T11:54:10;5.93;;;3.13;;
66585;SDS011;53444;45.822;16.092;2024-01-27T11:56:38;8.73;;;3.50;;
66585;SDS011;53444;45.822;16.092;2024-01-27T11:59:05;7.07;;;2.70;;
66585;SDS011;53444;45.822;16.092;2024-01-27T12:01:31;4.85;;;2.58;;
66585;SDS011;53444;45.822;16.092;2024-01-27T12:03:58;5.60;;;2.65;;
66585;SDS011;53444;45.822;16.092;2024-01-27T12:06:25;5.93;;;2.60;;
66585;SDS011;53444;45.822;16.092;2024-01-27T12:08:57;8.68;;;3.75;;
66585;SDS011;53444;45.822;16.092;2024-01-27T12:11:23;5.38;;;3.15;;
66585;SDS011;53444;45.822;16.092;2024-01-27T12:13:50;5.50;;;3.25;;
66585;SDS011;53444;45.822;16.092;2024-01-27T12:16:17;7.00;;;3.05;;
66585;SDS011;53444;45.822;16.092;2024-01-27T12:18:44;5.15;;;2.63;;
66585;SDS011;53444;45.822;16.092;2024-01-27T12:21:11;5.93;;;2.95;;
66585;SDS011;53444;45.822;16.092;2024-01-27T12:23:48;9.55;;;3.40;;
66585;SDS011;53444;45.822;16.092;2024-01-27T12:26:17;7.88;;;2.75;;
66585;SDS011;53444;45.822;16.092;2024-01-27T12:28:46;7.85;;;3.90;;
66585;SDS011;53444;45.822;16.092;2024-01-27T12:31:14;6.55;;;3.00;;
66585;SDS011;53444;45.822;16.092;2024-01-27T12:33:47;5.95;;;3.17;;
66585;SDS011;53444;45.822;16.092;2024-01-27T12:36:16;5.70;;;2.78;;
66585;SDS011;53444;45.822;16.092;2024-01-27T12:38:46;6.90;;;3.20;;
66585;SDS011;53444;45.822;16.092;2024-01-27T12:41:13;6.30;;;2.92;;
66585;SDS011;53444;45.822;16.092;2024-01-27T12:43:42;4.90;;;2.38;;
66585;SDS011;53444;45.822;16.092;2024-01-27T12:46:09;10.60;;;2.60;;
66585;SDS011;53444;45.822;16.092;2024-01-27T12:48:37;6.10;;;3.13;;
66585;SDS011;53444;45.822;16.092;2024-01-27T12:51:05;5.60;;;3.00;;
66585;SDS011;53444;45.822;16.092;2024-01-27T12:53:31;8.15;;;3.20;;
66585;SDS011;53444;45.822;16.092;2024-01-27T12:55:58;4.90;;;2.78;;
66585;SDS011;53444;45.822;16.092;2024-01-27T12:58:26;6.43;;;2.95;;
66585;SDS011;53444;45.822;16.092;2024-01-27T13:00:54;7.93;;;3.80;;
66585;SDS011;53444;45.822;16.092;2024-01-27T13:03:22;8.40;;;3.45;;
66585;SDS011;53444;45.822;16.092;2024-01-27T13:05:49;4.50;;;2.92;;
66585;SDS011;53444;45.822;16.092;2024-01-27T13:08:16;5.90;;;2.95;;
66585;SDS011;53444;45.822;16.092;2024-01-27T13:10:42;4.18;;;2.55;;
66585;SDS011;53444;45.822;16.092;2024-01-27T13:13:09;5.72;;;2.35;;
66585;SDS011;53444;45.822;16.092;2024-01-27T13:15:38;5.53;;;2.78;;
66585;SDS011;53444;45.822;16.092;2024-01-27T13:18:06;4.88;;;2.50;;
66585;SDS011;53444;45.822;16.092;2024-01-27T13:20:33;7.18;;;3.70;;
66585;SDS011;53444;45.822;16.092;2024-01-27T13:23:00;9.23;;;4.72;;
66585;SDS011;53444;45.822;16.092;2024-01-27T13:25:27;10.32;;;4.97;;
66585;SDS011;53444;45.822;16.092;2024-01-27T13:27:53;16.73;;;9.68;;
66585;SDS011;53444;45.822;16.092;2024-01-27T13:30:21;11.52;;;6.10;;
66585;SDS011;53444;45.822;16.092;2024-01-27T13:32:49;7.15;;;3.90;;
66585;SDS011;53444;45.822;16.092;2024-01-27T13:35:17;15.07;;;5.35;;
66585;SDS011;53444;45.822;16.092;2024-01-27T13:37:43;28.00;;;10.95;;
66585;SDS011;53444;45.822;16.092;2024-01-27T13:40:11;6.03;;;3.20;;
66585;SDS011;53444;45.822;16.092;2024-01-27T13:42:38;11.55;;;4.78;;
66585;SDS011;53444;45.822;16.092;2024-01-27T13:45:05;5.47;;;3.20;;
66585;SDS011;53444;45.822;16.092;2024-01-27T13:47:33;6.60;;;3.42;;
66585;SDS011;53444;45.822;16.092;2024-01-27T13:50:00;10.18;;;3.30;;
66585;SDS011;53444;45.822;16.092;2024-01-27T13:52:28;7.93;;;3.55;;
66585;SDS011;53444;45.822;16.092;2024-01-27T13:54:55;7.57;;;3.40;;
66585;SDS011;53444;45.822;16.092;2024-01-27T13:57:23;8.10;;;3.33;;
66585;SDS011;53444;45.822;16.092;2024-01-27T13:59:52;6.97;;;3.00;;
66585;SDS011;53444;45.822;16.092;2024-01-27T14:02:19;7.07;;;3.47;;
66585;SDS011;53444;45.822;16.092;2024-01-27T14:04:46;8.40;;;4.03;;
66585;SDS011;53444;45.822;16.092;2024-01-27T14:07:20;9.43;;;4.10;;
66585;SDS011;53444;45.822;16.092;2024-01-27T14:09:49;10.30;;;3.60;;
66585;SDS011;53444;45.822;16.092;2024-01-27T14:12:15;9.50;;;4.10;;
66585;SDS011;53444;45.822;16.092;2024-01-27T14:14:46;6.93;;;3.55;;
66585;SDS011;53444;45.822;16.092;2024-01-27T14:17:15;6.13;;;2.85;;
66585;SDS011;53444;45.822;16.092;2024-01-27T14:19:42;6.20;;;2.72;;